Time;durP1;ratioP1;P1;durP2;ratioP2;P2;SDS_P1;SDS_P2;PMS_P1;PMS_P2;Temp;Humidity;BMP_temperature;BMP_pressure;BME280_temperature;BME280_humidity;BME280_pressure;Samples;Min_cycle;Max_cycle;Signal;HPM_P1;HPM_P2
2023/09/12 17:30:14;;;;;;;;;;;;;;;;;;7403707;19;19919;-89
2023/09/12 17:32:43;;;;;;;;;;;;;;;;;;7397838;19;20410;-90
2023/09/12 17:35:09;;;;;;;;;;;;;;;;;;7389779;19;19927;-90
2023/09/12 17:37:37;;;;;;;;;;;;;;;;;;7393373;19;19931;-89
2023/09/12 17:40:03;;;;;;;;;;;;;;;;;;7396893;19;19978;-89
2023/09/12 17:42:30;;;;;;;;;;;;;;;;;;7391408;19;19930;-89
2023/09/12 17:45:00;;;;;;;;;;;;;;;;;;7391590;19;19927;-90
2023/09/12 17:47:27;;;;;;;;;;;;;;;;;;7389321;19;19915;-89
2023/09/12 17:49:53;;;;;;;;;;;;;;;;;;7393236;19;19943;-89
2023/09/12 17:52:20;;;;;;;;;;;;;;;;;;7389858;19;20413;-88
2023/09/12 17:54:46;;;;;;;;;;;;;;;;;;7394790;19;19955;-88
2023/09/12 17:57:13;;;;;;;;;;;;;;;;;;7390326;19;20373;-90
2023/09/12 17:59:40;;;;;;;;;;;;;;;;;;7391562;19;19918;-90
2023/09/12 18:02:07;;;;;;;;;;;;;;;;;;7390066;19;19978;-90
2023/09/12 18:04:33;;;;;;;;;;;;;;;;;;7391865;19;19994;-90
2023/09/12 18:07:03;;;;;;;;;;;;;;;;;;7391885;19;20475;-88
2023/09/12 18:09:31;;;;;;;;;;;;;;;;;;7387190;19;19926;-90
2023/09/12 18:11:58;;;;;;;;;;;;;;;;;;7389694;19;19926;-90
2023/09/12 18:14:25;;;;;;;;;;;;;;;;;;7386508;19;20454;-91
2023/09/12 18:16:51;;;;;;;;;;;;;;;;;;7391383;19;20261;-89
2023/09/12 18:19:18;;;;;;;;;;;;;;;;;;7388517;19;20344;-88
2023/09/12 18:21:45;;;;;;;;;;;;;;;;;;7385919;19;19937;-90
2023/09/12 18:24:11;;;;;;;;;;;;;;;;;;7388756;19;19922;-88
2023/09/12 18:26:39;;;;;;;;;;;;;;;;;;7386536;19;19930;-90
2023/09/12 18:29:05;;;;;;;;;;;;;;;;;;7385582;19;19925;-90
2023/09/12 18:31:32;;;;;;;;;;;;;;;;;;7388260;19;20303;-88
2023/09/12 18:33:58;;;;;;;;;;;;;;;;;;7388749;19;19922;-90
2023/09/12 18:36:27;;;;;;;;;;;;;;;;;;7386711;19;19918;-90
2023/09/12 18:38:54;;;;;;;;;;;;;;;;;;7388560;19;19939;-88
2023/09/12 18:41:20;;;;;;;;;;;;;;;;;;7385069;19;19923;-92
2023/09/12 18:43:47;;;;;;;;;;;;;;;;;;7384250;19;19930;-88
2023/09/12 18:46:13;;;;;;;;;;;;;;;;;;7382624;19;20244;-90
2023/09/12 18:48:40;;;;;;;;;;;;;;;;;;7382641;19;19935;-91
2023/09/12 18:51:07;;;;;;;;;;;;;;;;;;7381018;19;19923;-91
2023/09/12 18:53:33;;;;;;;;;;;;;;;;;;7385389;19;19926;-91
2023/09/12 18:56:00;;;;;;;;;;;;;;;;;;7392829;19;19939;-90
2023/09/12 18:58:27;;;;;;;;;;;;;;;;;;7391887;19;19919;-90
2023/09/12 19:00:56;;;;;;;;;;;;;;;;;;7395414;19;19922;-91
2023/09/12 19:03:22;;;;;;;;;;;;;;;;;;7390685;19;19926;-89
2023/09/12 19:06:09;;;;;;;;;;;;;;;;;;7391091;19;19939;-89
2023/09/12 19:08:40;;;;;;;;;;;;;;;;;;7392773;19;19926;-89
2023/09/12 19:11:07;;;;;;;;;;;;;;;;;;7388126;19;19926;-89
2023/09/12 19:13:34;;;;;;;;;;;;;;;;;;7416671;19;19918;-89
2023/09/12 19:16:02;;;;;;;;;;;;;;;;;;7403825;19;19918;-90
2023/09/12 19:18:29;;;;;;;;;;;;;;;;;;7390344;19;19933;-90
2023/09/12 19:20:56;;;;;;;;;;;;;;;;;;7390539;19;19919;-90
2023/09/12 19:23:23;;;;;;;;;;;;;;;;;;7390874;19;19935;-89
2023/09/12 19:25:49;;;;;;;;;;;;;;;;;;7389839;19;19943;-89
2023/09/12 19:28:16;;;;;;;;;;;;;;;;;;7386945;19;19996;-90
2023/09/12 19:30:43;;;;;;;;;;;;;;;;;;7388591;19;20542;-87
2023/09/12 19:33:10;;;;;;;;;;;;;;;;;;7390282;19;19939;-88
2023/09/12 19:35:38;;;;;;;;;;;;;;;;;;7391711;19;19946;-87
2023/09/12 19:38:08;;;;;;;;;;;;;;;;;;7391578;19;19911;-89
2023/09/12 19:41:01;;;;;;;;;;;;;;;;;;7390870;19;20683;-89
2023/09/12 19:44:06;;;;;;;;;;;;;;;;;;;;;
2023/09/12 19:47:24;;;;;;;;;;;;;;;;;;7392994;19;19915;-89
2023/09/12 19:49:53;;;;;;;;;;;;;;;;;;7394199;19;19923;-88
2023/09/12 19:52:20;;;;;;;;;;;;;;;;;;7391907;19;20365;-87
2023/09/12 19:54:47;;;;;;;;;;;;;;;;;;7392792;19;19919;-88
2023/09/12 19:57:17;;;;;;;;;;;;;;;;;;7391561;19;20507;-88
2023/09/12 19:59:50;;;;;;;;;;;;;;;;;;7395519;19;19928;-88
2023/09/12 20:02:29;;;;;;;;;;;;;;;;;;7400465;19;19921;-89
2023/09/12 20:05:20;;;;;;;;;;;;;;;;;;7398197;19;19919;-88
2023/09/12 20:07:49;;;;;;;;;;;;;;;;;;7398737;19;19958;-88
2023/09/12 20:10:19;;;;;;;;;;;;;;;;;;7399742;19;19943;-90
2023/09/12 20:12:48;;;;;;;;;;;;;;;;;;7401278;19;19951;-91
2023/09/12 20:15:18;;;;;;;;;;;;;;;;;;7400532;19;19930;-90
2023/09/12 20:17:57;;;;;;;;;;;;;;;;;;7399793;19;20337;-91
2023/09/12 20:20:24;;;;;;;;;;;;;;;;;;7398343;19;19922;-88
2023/09/12 20:22:51;;;;;;;;;;;;;;;;;;7398381;19;20388;-89
2023/09/12 20:25:20;;;;;;;;;;;;;;;;;;7401098;19;19926;-89
2023/09/12 20:27:47;;;;;;;;;;;;;;;;;;7398400;19;19930;-89
2023/09/12 20:30:14;;;;;;;;;;;;;;;;;;7397961;19;19931;-88
2023/09/12 20:32:44;;;;;;;;;;;;;;;;;;7400273;19;19918;-89
2023/09/12 20:35:25;;;;;;;;;;;;;;;;;;7401039;19;19926;-88
2023/09/12 20:37:52;;;;;;;;;;;;;;;;;;7402594;19;20179;-88
2023/09/12 20:40:18;;;;;;;;;;;;;;;;;;7402952;19;19930;-88
2023/09/12 20:42:47;;;;;;;;;;;;;;;;;;7414956;19;19930;-87
2023/09/12 20:45:14;;;;;;;;;;;;;;;;;;7424387;19;19919;-87
2023/09/12 20:47:41;;;;;;;;;;;;;;;;;;7422797;19;19958;-86
2023/09/12 20:50:10;;;;;;;;;;;;;;;;;;7421107;19;19919;-86
2023/09/12 20:52:36;;;;;;;;;;;;;;;;;;7412767;19;19918;-88
2023/09/12 20:55:03;;;;;;;;;;;;;;;;;;7397863;19;20274;-89
2023/09/12 20:57:30;;;;;;;;;;;;;;;;;;7409688;19;19927;-88
2023/09/12 20:59:56;;;;;;;;;;;;;;;;;;7423217;19;19934;-89
2023/09/12 21:02:23;;;;;;;;;;;;;;;;;;7420666;19;20283;-89
2023/09/12 21:04:50;;;;;;;;;;;;;;;;;;7394478;19;19987;-88
2023/09/12 21:07:20;;;;;;;;;;;;;;;;;;7393650;19;20307;-88
2023/09/12 21:09:46;;;;;;;;;;;;;;;;;;7393907;19;19918;-90
2023/09/12 21:12:13;;;;;;;;;;;;;;;;;;7389564;19;19911;-87
2023/09/12 21:14:40;;;;;;;;;;;;;;;;;;7396718;19;20351;-89
2023/09/12 21:17:06;;;;;;;;;;;;;;;;;;7395470;19;19927;-86
2023/09/12 21:19:33;;;;;;;;;;;;;;;;;;7391343;19;19954;-88
2023/09/12 21:22:00;;;;;;;;;;;;;;;;;;7392074;19;19934;-90
2023/09/12 21:24:28;;;;;;;;;;;;;;;;;;7394207;19;19948;-89
2023/09/12 21:26:54;;;;;;;;;;;;;;;;;;7393202;19;19998;-90
2023/09/12 21:29:21;;;;;;;;;;;;;;;;;;7388330;19;19922;-90
2023/09/12 21:31:48;;;;;;;;;;;;;;;;;;7389943;19;19934;-90
2023/09/12 21:34:15;;;;;;;;;;;;;;;;;;7390843;19;20348;-88
2023/09/12 21:36:42;;;;;;;;;;;;;;;;;;7390543;19;20352;-91
2023/09/12 21:39:10;;;;;;;;;;;;;;;;;;7390951;19;19930;-92
2023/09/12 21:41:37;;;;;;;;;;;;;;;;;;7388710;19;20375;-92
2023/09/12 21:44:11;;;;;;;;;;;;;;;;;;7387730;19;19926;-92
2023/09/12 21:46:50;;;;;;;;;;;;;;;;;;7390855;19;19930;-90
2023/09/12 21:49:17;;;;;;;;;;;;;;;;;;7393775;19;19915;-91
2023/09/12 21:51:51;;;;;;;;;;;;;;;;;;7392541;19;20035;-92
2023/09/12 21:54:20;;;;;;;;;;;;;;;;;;7386120;19;19970;-91
2023/09/12 21:56:47;;;;;;;;;;;;;;;;;;7389760;19;19948;-91
2023/09/12 21:59:14;;;;;;;;;;;;;;;;;;7387617;19;19926;-91
2023/09/12 22:01:49;;;;;;;;;;;;;;;;;;7387699;19;19922;-92
2023/09/12 22:04:16;;;;;;;;;;;;;;;;;;7386636;19;19918;-90
2023/09/12 22:06:43;;;;;;;;;;;;;;;;;;7390059;19;19923;-89
2023/09/12 22:09:10;;;;;;;;;;;;;;;;;;7390252;19;19922;-89
2023/09/12 22:11:37;;;;;;;;;;;;;;;;;;7391038;19;19926;-88
2023/09/12 22:14:06;;;;;;;;;;;;;;;;;;7395086;19;19940;-89
2023/09/12 22:16:32;;;;;;;;;;;;;;;;;;7392144;19;19926;-90
2023/09/12 22:18:59;;;;;;;;;;;;;;;;;;7389680;19;19927;-91
2023/09/12 22:21:27;;;;;;;;;;;;;;;;;;7382154;19;19934;-90
2023/09/12 22:27:12;;;;;;;;;;;;;;;;;;7394470;19;19951;-91
2023/09/12 22:30:02;;;;;;;;;;;;;;;;;;7388327;19;19943;-92
2023/09/12 22:32:46;;;;;;;;;;;;;;;;;;7388754;19;19919;-91
2023/09/12 22:38:58;;;;;;;;;;;;;;;;;;7391150;19;19927;-92
2023/09/12 22:42:17;;;;;;;;;;;;;;;;;;7391003;19;20264;-91
2023/09/12 22:48:07;;;;;;;;;;;;;;;;;;7390295;19;19926;-90
2023/09/12 22:50:35;;;;;;;;;;;;;;;;;;7392360;19;19922;-87
2023/09/12 22:53:02;;;;;;;;;;;;;;;;;;7391473;19;19926;-88
2023/09/12 22:55:32;;;;;;;;;;;;;;;;;;7393967;19;19922;-88
2023/09/12 22:58:07;;;;;;;;;;;;;;;;;;7391983;19;19939;-88
2023/09/12 23:00:47;;;;;;;;;;;;;;;;;;7393081;19;19931;-88
2023/09/12 23:03:41;;;;;;;;;;;;;;;;;;7393124;19;19933;-88
2023/09/12 23:06:25;;;;;;;;;;;;;;;;;;7393224;19;19944;-88
2023/09/12 23:08:54;;;;;;;;;;;;;;;;;;7393041;19;20282;-88
2023/09/12 23:11:20;;;;;;;;;;;;;;;;;;7395237;19;19915;-88
2023/09/12 23:13:59;;;;;;;;;;;;;;;;;;7389884;19;19983;-88
2023/09/12 23:16:32;;;;;;;;;;;;;;;;;;7393552;19;20289;-88
2023/09/12 23:19:05;;;;;;;;;;;;;;;;;;7393697;19;19982;-88
2023/09/12 23:21:37;;;;;;;;;;;;;;;;;;7396119;19;19923;-89
2023/09/12 23:24:09;;;;;;;;;;;;;;;;;;7395323;19;19943;-88
2023/09/12 23:26:41;;;;;;;;;;;;;;;;;;7394639;19;19922;-88
2023/09/12 23:29:13;;;;;;;;;;;;;;;;;;7395080;19;19930;-87
2023/09/12 23:31:45;;;;;;;;;;;;;;;;;;7395845;19;20432;-89
2023/09/12 23:34:17;;;;;;;;;;;;;;;;;;7396007;19;19943;-89
2023/09/12 23:36:49;;;;;;;;;;;;;;;;;;7403514;19;19927;-89
2023/09/12 23:39:22;;;;;;;;;;;;;;;;;;7403309;19;20320;-89
2023/09/12 23:41:54;;;;;;;;;;;;;;;;;;7402957;19;19926;-89
2023/09/12 23:44:26;;;;;;;;;;;;;;;;;;7399935;19;19936;-88
2023/09/12 23:46:58;;;;;;;;;;;;;;;;;;7401729;19;19931;-89
2023/09/12 23:49:30;;;;;;;;;;;;;;;;;;7402181;19;19926;-89
2023/09/12 23:52:03;;;;;;;;;;;;;;;;;;7401607;19;19929;-88
2023/09/12 23:54:35;;;;;;;;;;;;;;;;;;7398192;19;19917;-89
2023/09/12 23:57:07;;;;;;;;;;;;;;;;;;7401539;19;19943;-89
2023/09/12 23:59:39;;;;;;;;;;;;;;;;;;7398767;19;19928;-88
